createdAt,value
2022-11-24T00:01:04.529Z,3.65
2022-11-24T00:02:36.351Z,3.63
2022-11-24T00:04:08.137Z,4.88
2022-11-24T00:05:39.852Z,4.05
2022-11-24T00:07:12.837Z,4.15
2022-11-24T00:08:46.342Z,4.10
2022-11-24T00:10:18.070Z,4.25
2022-11-24T00:11:49.735Z,4.18
2022-11-24T00:13:21.424Z,3.95
2022-11-24T00:14:53.035Z,3.92
2022-11-24T00:16:26.914Z,4.30
2022-11-24T00:17:58.607Z,4.20
2022-11-24T00:19:30.255Z,4.55
2022-11-24T00:21:02.389Z,4.57
2022-11-24T00:22:35.340Z,4.80
2022-11-24T00:24:07.117Z,4.60
2022-11-24T00:25:38.729Z,4.10
2022-11-24T00:27:10.496Z,3.90
2022-11-24T00:28:43.516Z,3.80
2022-11-24T00:30:15.634Z,4.85
2022-11-24T00:31:47.233Z,3.90
2022-11-24T00:33:18.820Z,3.78
2022-11-24T00:34:50.422Z,4.85
2022-11-24T00:36:23.900Z,4.60
2022-11-24T00:37:56.841Z,4.07
2022-11-24T00:39:28.530Z,3.45
2022-11-24T00:41:00.166Z,4.18
2022-11-24T00:42:31.767Z,4.50
2022-11-24T00:44:03.759Z,4.25
2022-11-24T00:45:35.363Z,4.20
2022-11-24T00:47:07.099Z,4.00
2022-11-24T00:48:38.943Z,4.38
2022-11-24T00:50:10.722Z,4.35
2022-11-24T00:51:42.399Z,4.05
2022-11-24T00:53:15.391Z,4.35
2022-11-24T00:54:47.033Z,4.35
2022-11-24T00:56:19.124Z,4.03
2022-11-24T00:57:51.240Z,3.80
2022-11-24T00:59:22.875Z,4.63
2022-11-24T01:00:54.605Z,3.78
2022-11-24T01:02:26.810Z,3.72
2022-11-24T01:04:01.225Z,4.05
2022-11-24T01:05:35.888Z,3.90
2022-11-24T01:07:07.650Z,3.75
2022-11-24T01:08:41.499Z,3.50
2022-11-24T01:10:13.137Z,3.75
2022-11-24T01:12:03.986Z,4.88
2022-11-24T01:13:35.764Z,4.10
2022-11-24T01:15:08.136Z,3.63
2022-11-24T01:16:39.797Z,3.95
2022-11-24T01:18:13.120Z,3.60
2022-11-24T01:19:47.111Z,4.00
2022-11-24T01:21:20.130Z,4.47
2022-11-24T01:22:51.801Z,4.20
2022-11-24T01:24:25.176Z,3.90
2022-11-24T01:25:56.781Z,4.43
2022-11-24T01:27:28.490Z,3.65
2022-11-24T01:29:00.096Z,3.55
2022-11-24T01:30:31.811Z,4.00
2022-11-24T01:32:03.756Z,4.07
2022-11-24T01:33:35.666Z,4.03
2022-11-24T01:35:08.608Z,4.10
2022-11-24T01:36:40.295Z,4.10
2022-11-24T01:38:11.929Z,3.78
2022-11-24T01:39:44.939Z,4.38
2022-11-24T01:41:19.219Z,4.18
2022-11-24T01:42:52.264Z,3.70
2022-11-24T01:44:26.227Z,4.35
2022-11-24T01:46:01.942Z,4.28
2022-11-24T01:47:36.337Z,4.13
2022-11-24T01:49:13.455Z,4.00
2022-11-24T01:50:46.343Z,4.10
2022-11-24T01:52:25.930Z,4.25
2022-11-24T01:54:00.744Z,4.32
2022-11-24T01:55:36.975Z,4.22
2022-11-24T01:57:16.990Z,4.05
2022-11-24T01:58:50.309Z,4.03
2022-11-24T02:00:22.448Z,4.90
2022-11-24T02:01:56.759Z,3.95
2022-11-24T02:03:32.783Z,4.20
2022-11-24T02:05:10.104Z,4.20
2022-11-24T02:06:45.751Z,4.70
2022-11-24T02:08:22.833Z,4.38
2022-11-24T02:09:57.841Z,4.03
2022-11-24T02:11:34.794Z,4.15
2022-11-24T02:13:06.507Z,4.55
2022-11-24T02:14:40.358Z,3.95
2022-11-24T02:16:12.728Z,4.93
2022-11-24T02:17:44.783Z,4.43
2022-11-24T02:19:25.361Z,3.75
2022-11-24T02:20:57.261Z,4.50
2022-11-24T02:22:37.788Z,4.10
2022-11-24T02:24:16.174Z,5.03
2022-11-24T02:25:56.165Z,4.47
2022-11-24T02:27:29.164Z,4.07
2022-11-24T02:29:00.923Z,4.55
2022-11-24T02:30:32.835Z,4.03
2022-11-24T02:32:08.123Z,5.15
2022-11-24T02:33:40.638Z,4.28
2022-11-24T02:35:13.585Z,5.03
2022-11-24T02:36:45.184Z,3.97
2022-11-24T02:38:16.824Z,4.85
2022-11-24T02:39:48.409Z,4.53
2022-11-24T02:41:23.628Z,4.65
2022-11-24T02:42:59.189Z,4.43
2022-11-24T02:44:35.237Z,4.53
2022-11-24T02:46:07.264Z,4.65
2022-11-24T02:47:38.903Z,4.50
2022-11-24T02:49:10.486Z,4.45
2022-11-24T02:50:42.198Z,4.40
2022-11-24T02:52:13.931Z,5.28
2022-11-24T02:53:45.783Z,4.40
2022-11-24T02:55:17.559Z,4.68
2022-11-24T02:56:49.169Z,5.15
2022-11-24T02:58:22.139Z,3.88
2022-11-24T02:59:53.735Z,4.65
2022-11-24T03:01:25.451Z,5.07
2022-11-24T03:02:57.185Z,4.80
2022-11-24T03:04:28.910Z,4.47
2022-11-24T03:06:00.567Z,5.55
2022-11-24T03:07:32.219Z,5.05
2022-11-24T03:09:04.112Z,5.45
2022-11-24T03:10:35.834Z,4.93
2022-11-24T03:12:07.788Z,4.68
2022-11-24T03:13:40.777Z,4.97
2022-11-24T03:15:12.373Z,4.97
2022-11-24T03:16:43.999Z,4.70
2022-11-24T03:18:15.619Z,4.82
2022-11-24T03:19:47.253Z,4.70
2022-11-24T03:21:19.228Z,4.93
2022-11-24T03:22:50.952Z,4.63
2022-11-24T03:24:22.538Z,4.63
2022-11-24T03:25:54.939Z,4.93
2022-11-24T03:27:26.656Z,4.50
2022-11-24T03:28:59.785Z,4.45
2022-11-24T03:30:31.425Z,4.88
2022-11-24T03:32:03.200Z,5.50
2022-11-24T03:33:35.120Z,4.90
2022-11-24T03:35:07.632Z,5.20
2022-11-24T03:36:39.290Z,4.93
2022-11-24T03:38:10.934Z,4.82
2022-11-24T03:39:42.674Z,5.07
2022-11-24T03:41:14.344Z,5.03
2022-11-24T03:42:45.991Z,4.75
2022-11-24T03:44:18.947Z,4.93
2022-11-24T03:45:50.615Z,5.00
2022-11-24T03:47:22.293Z,4.68
2022-11-24T03:48:53.925Z,5.03
2022-11-24T03:50:25.531Z,5.25
2022-11-24T03:51:57.162Z,4.57
2022-11-24T03:53:30.936Z,4.22
2022-11-24T03:55:02.561Z,5.10
2022-11-24T03:56:34.146Z,4.68
2022-11-24T03:58:05.723Z,4.43
2022-11-24T03:59:39.130Z,4.47
2022-11-24T04:01:10.959Z,5.05
2022-11-24T04:02:42.618Z,4.70
2022-11-24T04:04:14.582Z,5.00
2022-11-24T04:05:46.509Z,5.40
2022-11-24T04:07:18.479Z,5.22
2022-11-24T04:08:50.100Z,5.20
2022-11-24T04:10:21.695Z,4.05
2022-11-24T04:12:11.948Z,5.45
2022-11-24T04:13:47.354Z,5.05
2022-11-24T04:15:20.673Z,4.82
2022-11-24T04:16:52.294Z,4.50
2022-11-24T04:18:23.982Z,4.97
2022-11-24T04:19:55.729Z,5.30
2022-11-24T04:21:27.379Z,4.93
2022-11-24T04:22:59.068Z,5.60
2022-11-24T04:24:30.871Z,5.30
2022-11-24T04:26:02.625Z,5.22
2022-11-24T04:27:34.885Z,4.95
2022-11-24T04:29:06.528Z,5.10
2022-11-24T04:30:44.387Z,4.93
2022-11-24T04:32:16.079Z,5.65
2022-11-24T04:33:47.652Z,5.05
2022-11-24T04:35:20.079Z,4.80
2022-11-24T04:36:51.687Z,4.53
2022-11-24T04:39:23.808Z,4.40
2022-11-24T04:40:15.024Z,4.85
2022-11-24T04:41:47.520Z,5.18
2022-11-24T04:43:20.003Z,5.25
2022-11-24T04:44:51.822Z,5.82
2022-11-24T04:46:24.803Z,5.10
2022-11-24T04:47:56.412Z,5.15
2022-11-24T04:49:28.230Z,4.78
2022-11-24T04:51:04.172Z,5.30
2022-11-24T04:52:35.800Z,5.47
2022-11-24T04:54:09.409Z,4.68
2022-11-24T04:55:41.299Z,5.18
2022-11-24T04:57:15.883Z,4.20
2022-11-24T04:58:47.939Z,4.93
2022-11-24T05:00:19.824Z,5.00
2022-11-24T05:01:52.854Z,4.90
2022-11-24T05:03:24.473Z,4.53
2022-11-24T05:04:56.141Z,4.75
2022-11-24T05:06:27.841Z,5.10
2022-11-24T05:07:59.916Z,5.00
2022-11-24T05:09:54.950Z,4.22
2022-11-24T05:11:23.290Z,5.00
2022-11-24T05:12:56.534Z,4.90
2022-11-24T05:14:28.287Z,5.20
2022-11-24T05:16:01.248Z,4.88
2022-11-24T05:17:36.123Z,5.28
2022-11-24T05:19:08.412Z,4.82
2022-11-24T05:20:40.014Z,4.68
2022-11-24T05:22:11.671Z,4.75
2022-11-24T05:23:43.312Z,4.78
2022-11-24T05:25:15.435Z,4.50
2022-11-24T05:26:47.097Z,4.82
2022-11-24T05:28:19.453Z,4.95
2022-11-24T05:29:51.057Z,5.72
2022-11-24T05:31:22.856Z,4.97
2022-11-24T05:32:55.891Z,5.22
2022-11-24T05:34:28.331Z,5.45
2022-11-24T05:36:01.441Z,4.93
2022-11-24T05:37:33.052Z,5.13
2022-11-24T05:39:04.669Z,4.80
2022-11-24T05:40:36.491Z,5.05
2022-11-24T05:42:26.768Z,4.90
2022-11-24T05:43:58.465Z,5.70
2022-11-24T05:45:30.568Z,4.63
2022-11-24T05:47:02.239Z,4.70
2022-11-24T05:48:35.277Z,5.22
2022-11-24T05:50:07.839Z,5.35
2022-11-24T05:51:39.523Z,4.72
2022-11-24T05:53:13.199Z,4.43
2022-11-24T05:54:44.850Z,4.75
2022-11-24T05:56:16.603Z,4.90
2022-11-24T05:57:48.382Z,5.03
2022-11-24T05:59:20.097Z,4.07
2022-11-24T06:00:51.725Z,5.03
2022-11-24T06:02:23.508Z,4.53
2022-11-24T06:03:56.610Z,4.85
2022-11-24T06:05:29.828Z,4.78
2022-11-24T06:07:01.790Z,4.35
2022-11-24T06:08:34.130Z,4.35
2022-11-24T06:10:06.123Z,4.97
2022-11-24T06:11:37.819Z,4.40
2022-11-24T06:13:09.569Z,4.57
2022-11-24T06:14:41.807Z,4.32
2022-11-24T06:16:13.593Z,4.47
2022-11-24T06:17:52.034Z,4.25
2022-11-24T06:19:25.342Z,4.45
2022-11-24T06:21:10.267Z,3.92
2022-11-24T06:22:42.748Z,3.67
2022-11-24T06:24:14.803Z,3.75
2022-11-24T06:25:51.421Z,3.78
2022-11-24T06:27:23.610Z,3.58
2022-11-24T06:28:55.621Z,3.97
2022-11-24T06:30:27.235Z,4.03
2022-11-24T06:31:58.943Z,3.75
2022-11-24T06:33:32.248Z,3.22
2022-11-24T06:35:06.478Z,3.22
2022-11-24T06:36:38.313Z,3.53
2022-11-24T06:38:10.659Z,3.05
2022-11-24T06:39:42.573Z,2.97
2022-11-24T06:41:16.242Z,3.10
2022-11-24T06:42:51.321Z,3.53
2022-11-24T06:44:22.948Z,3.55
2022-11-24T06:45:54.612Z,3.35
2022-11-24T06:47:26.340Z,3.22
2022-11-24T06:48:59.611Z,3.25
2022-11-24T06:50:33.863Z,2.35
2022-11-24T06:52:05.609Z,2.47
2022-11-24T06:53:38.715Z,2.45
2022-11-24T06:55:10.459Z,2.78
2022-11-24T06:56:42.107Z,2.65
2022-11-24T06:58:14.066Z,2.53
2022-11-24T06:59:45.671Z,2.20
2022-11-24T07:01:18.737Z,2.58
2022-11-24T07:02:50.606Z,2.92
2022-11-24T07:04:22.271Z,2.17
2022-11-24T07:05:58.064Z,2.22
2022-11-24T07:07:29.729Z,2.25
2022-11-24T07:09:01.479Z,2.28
2022-11-24T07:10:33.457Z,2.85
2022-11-24T07:12:06.025Z,2.08
2022-11-24T07:13:37.759Z,1.95
2022-11-24T07:15:10.262Z,2.08
2022-11-24T07:16:42.352Z,2.35
2022-11-24T07:18:14.320Z,1.80
2022-11-24T07:19:46.209Z,2.30
2022-11-24T07:21:20.290Z,2.28
2022-11-24T07:22:56.072Z,2.20
2022-11-24T07:24:27.761Z,2.35
2022-11-24T07:26:06.533Z,2.20
2022-11-24T07:27:38.680Z,2.35
2022-11-24T07:29:10.391Z,1.98
2022-11-24T07:30:42.038Z,2.25
2022-11-24T07:32:13.753Z,2.10
2022-11-24T07:33:48.308Z,2.10
2022-11-24T07:35:19.964Z,1.88
2022-11-24T07:36:53.045Z,2.00
2022-11-24T07:38:24.653Z,2.38
2022-11-24T07:39:56.277Z,2.28
2022-11-24T07:41:27.942Z,2.22
2022-11-24T07:43:00.348Z,2.15
2022-11-24T07:44:32.140Z,2.08
2022-11-24T07:46:06.375Z,1.92
2022-11-24T07:47:39.452Z,2.35
2022-11-24T07:49:11.098Z,2.97
2022-11-24T07:50:42.708Z,2.95
2022-11-24T07:52:15.676Z,2.90
2022-11-24T07:53:47.378Z,2.30
2022-11-24T07:55:19.143Z,2.63
2022-11-24T07:56:50.807Z,2.50
2022-11-24T07:58:22.971Z,2.70
2022-11-24T07:59:54.683Z,2.65
2022-11-24T08:01:26.395Z,2.20
2022-11-24T08:02:58.051Z,2.55
2022-11-24T08:04:29.599Z,2.40
2022-11-24T08:06:39.878Z,2.70
2022-11-24T08:07:54.533Z,4.30
2022-11-24T08:09:26.237Z,2.65
2022-11-24T08:10:57.838Z,2.58
2022-11-24T08:12:29.605Z,2.42
2022-11-24T08:14:01.257Z,2.58
2022-11-24T08:15:32.912Z,2.60
2022-11-24T08:17:04.631Z,2.92
2022-11-24T08:18:37.290Z,2.55
2022-11-24T08:20:10.402Z,2.70
2022-11-24T08:21:42.061Z,3.08
2022-11-24T08:23:15.249Z,2.67
2022-11-24T08:24:48.684Z,2.72
2022-11-24T08:26:20.379Z,2.60
2022-11-24T08:27:52.074Z,2.80
2022-11-24T08:29:28.380Z,3.33
2022-11-24T08:31:05.071Z,3.05
2022-11-24T08:32:36.755Z,3.00
2022-11-24T08:34:08.533Z,3.13
2022-11-24T08:35:40.364Z,2.60
2022-11-24T08:37:12.388Z,3.03
2022-11-24T08:38:46.199Z,3.00
2022-11-24T08:40:17.953Z,2.88
2022-11-24T08:41:49.573Z,4.80
2022-11-24T08:43:21.161Z,3.15
2022-11-24T08:44:58.820Z,2.85
2022-11-24T08:46:30.821Z,2.78
2022-11-24T08:48:02.493Z,3.33
2022-11-24T08:49:34.236Z,3.00
2022-11-24T08:51:08.044Z,3.22
2022-11-24T08:52:39.743Z,3.75
2022-11-24T08:54:15.231Z,3.40
2022-11-24T08:55:46.882Z,3.28
2022-11-24T08:57:21.738Z,3.30
2022-11-24T08:58:54.131Z,3.17
2022-11-24T09:00:25.880Z,3.55
2022-11-24T09:01:57.543Z,3.38
2022-11-24T09:03:29.336Z,2.90
2022-11-24T09:05:00.982Z,3.08
2022-11-24T09:06:32.624Z,3.17
2022-11-24T09:08:04.712Z,3.38
2022-11-24T09:09:37.720Z,3.40
2022-11-24T09:11:11.192Z,3.28
2022-11-24T09:12:44.130Z,3.30
2022-11-24T09:14:15.794Z,3.05
2022-11-24T09:15:47.425Z,3.28
2022-11-24T09:17:19.003Z,3.10
2022-11-24T09:18:55.095Z,3.05
2022-11-24T09:20:26.685Z,3.40
2022-11-24T09:21:58.314Z,3.22
2022-11-24T09:23:29.945Z,3.47
2022-11-24T09:25:02.969Z,3.25
2022-11-24T09:26:36.816Z,3.40
2022-11-24T09:28:08.458Z,3.17
2022-11-24T09:29:40.116Z,3.25
2022-11-24T09:31:13.767Z,4.00
2022-11-24T09:32:45.470Z,3.13
2022-11-24T09:34:17.310Z,3.10
2022-11-24T09:35:49.739Z,2.97
2022-11-24T09:37:21.394Z,3.65
2022-11-24T09:38:53.302Z,4.15
2022-11-24T09:40:27.032Z,3.13
2022-11-24T09:42:08.261Z,3.78
2022-11-24T09:43:45.920Z,3.53
2022-11-24T09:45:57.100Z,3.60
2022-11-24T09:47:28.037Z,3.45
2022-11-24T09:49:04.213Z,3.38
2022-11-24T09:50:38.643Z,3.45
2022-11-24T09:52:16.687Z,3.60
2022-11-24T09:53:55.017Z,3.40
2022-11-24T09:55:39.073Z,3.25
2022-11-24T09:57:12.529Z,3.22
2022-11-24T09:58:48.290Z,3.15
2022-11-24T10:00:20.173Z,4.00
2022-11-24T10:01:52.571Z,3.55
2022-11-24T10:03:29.511Z,3.85
2022-11-24T10:05:01.274Z,4.03
2022-11-24T10:06:39.400Z,3.45
2022-11-24T10:08:23.759Z,3.35
2022-11-24T10:10:03.293Z,3.10
2022-11-24T10:11:42.921Z,3.33
2022-11-24T10:13:33.244Z,2.95
2022-11-24T10:15:24.424Z,3.03
2022-11-24T10:17:07.336Z,3.10
2022-11-24T10:18:56.736Z,3.42
2022-11-24T10:20:40.477Z,3.25
2022-11-24T10:22:28.969Z,3.40
2022-11-24T10:24:35.484Z,2.95
2022-11-24T10:26:13.071Z,3.65
2022-11-24T10:27:50.264Z,3.08
2022-11-24T10:29:27.041Z,4.75
2022-11-24T10:31:13.307Z,3.45
2022-11-24T10:32:47.860Z,4.65
2022-11-24T10:34:25.031Z,3.58
2022-11-24T10:36:04.064Z,3.80
2022-11-24T10:37:40.604Z,3.97
2022-11-24T10:39:19.845Z,3.42
2022-11-24T10:40:58.244Z,3.03
2022-11-24T10:42:31.923Z,3.10
2022-11-24T10:44:05.010Z,3.58
2022-11-24T10:45:39.189Z,3.20
2022-11-24T10:47:18.598Z,3.40
2022-11-24T10:48:53.552Z,3.42
2022-11-24T10:50:27.383Z,3.28
2022-11-24T10:52:05.911Z,3.22
2022-11-24T10:53:41.930Z,3.33
2022-11-24T10:55:13.655Z,3.03
2022-11-24T10:56:47.193Z,4.03
2022-11-24T10:58:23.649Z,3.03
2022-11-24T10:59:56.886Z,3.13
2022-11-24T11:01:32.814Z,3.15
2022-11-24T11:03:20.900Z,3.80
2022-11-24T11:04:52.685Z,3.03
2022-11-24T11:06:26.646Z,4.35
2022-11-24T11:08:17.096Z,4.03
2022-11-24T11:09:49.375Z,3.70
2022-11-24T11:11:27.339Z,3.65
2022-11-24T11:12:59.013Z,3.83
2022-11-24T11:14:32.410Z,3.47
2022-11-24T11:16:24.158Z,3.75
2022-11-24T11:18:00.895Z,3.65
2022-11-24T11:19:55.473Z,3.35
2022-11-24T11:21:33.145Z,3.42
2022-11-24T11:23:16.702Z,3.78
2022-11-24T11:25:03.213Z,3.78
2022-11-24T11:26:37.727Z,4.13
2022-11-24T11:28:29.582Z,3.30
2022-11-24T11:34:23.200Z,3.50
2022-11-24T11:36:01.487Z,3.33
2022-11-24T11:37:33.711Z,4.05
2022-11-24T11:39:05.871Z,3.97
2022-11-24T11:40:37.823Z,3.65
2022-11-24T11:42:45.284Z,3.95
2022-11-24T11:44:21.492Z,3.17
2022-11-24T11:46:01.490Z,4.15
2022-11-24T11:49:12.198Z,3.42
2022-11-24T11:53:00.440Z,3.67
2022-11-24T11:54:50.011Z,3.90
2022-11-24T11:56:25.904Z,3.58
2022-11-24T11:58:10.133Z,3.30
2022-11-24T12:00:01.892Z,3.60
2022-11-24T12:01:46.852Z,3.83
2022-11-24T12:03:57.925Z,3.58
2022-11-24T12:05:34.860Z,3.47
2022-11-24T12:07:33.082Z,3.72
2022-11-24T12:09:21.325Z,3.80
2022-11-24T12:11:02.407Z,3.72
2022-11-24T12:12:46.941Z,3.83
2022-11-24T12:14:29.605Z,3.40
2022-11-24T12:16:09.826Z,3.70
2022-11-24T12:17:48.037Z,3.60
2022-11-24T12:19:34.182Z,3.25
2022-11-24T12:21:17.950Z,3.17
2022-11-24T12:23:02.867Z,4.15
2022-11-24T12:24:45.025Z,3.45
2022-11-24T12:26:26.921Z,4.18
2022-11-24T12:28:13.092Z,3.63
2022-11-24T12:30:12.716Z,3.30
2022-11-24T12:31:57.076Z,3.75
2022-11-24T12:33:49.138Z,4.05
2022-11-24T12:35:28.675Z,3.90
2022-11-24T12:37:18.560Z,4.03
2022-11-24T12:38:58.291Z,4.03
2022-11-24T12:40:40.901Z,3.97
2022-11-24T12:42:30.108Z,3.78
2022-11-24T12:44:02.869Z,3.22
2022-11-24T12:45:42.968Z,3.45
2022-11-24T12:48:59.674Z,3.90
2022-11-24T12:50:37.456Z,3.50
2022-11-24T12:52:19.456Z,3.80
2022-11-24T12:53:52.949Z,3.85
2022-11-24T12:55:25.572Z,4.22
2022-11-24T12:57:04.676Z,3.72
2022-11-24T12:58:45.653Z,4.67
2022-11-24T13:00:21.879Z,3.97
2022-11-24T13:02:04.536Z,3.35
2022-11-24T13:03:45.149Z,3.78
2022-11-24T13:05:23.192Z,3.65
2022-11-24T13:07:01.422Z,4.05
2022-11-24T13:08:36.651Z,3.55
2022-11-24T13:10:54.133Z,3.88
2022-11-24T13:12:22.094Z,3.58
2022-11-24T13:14:00.680Z,4.80
2022-11-24T13:16:07.051Z,3.85
2022-11-24T13:18:02.853Z,3.53
2022-11-24T13:19:38.034Z,3.72
2022-11-24T13:21:42.988Z,3.92
2022-11-24T13:23:25.259Z,3.22
2022-11-24T13:25:16.251Z,4.30
2022-11-24T13:26:50.422Z,4.13
2022-11-24T13:29:03.535Z,4.35
2022-11-24T13:31:08.003Z,3.70
2022-11-24T13:33:00.203Z,3.40
2022-11-24T13:34:57.163Z,3.25
2022-11-24T13:36:33.996Z,3.90
2022-11-24T13:38:39.935Z,4.50
2022-11-24T13:40:45.842Z,3.33
2022-11-24T13:42:44.088Z,3.95
2022-11-24T13:44:25.287Z,4.18
2022-11-24T13:45:57.073Z,3.58
2022-11-24T13:47:34.434Z,3.85
2022-11-24T13:49:14.224Z,4.45
2022-11-24T13:51:17.201Z,3.83
2022-11-24T13:52:52.223Z,3.70
2022-11-24T13:54:27.320Z,4.22
2022-11-24T13:56:00.832Z,3.95
2022-11-24T13:57:34.159Z,4.85
2022-11-24T13:59:17.245Z,4.00
2022-11-24T14:01:19.438Z,4.13
2022-11-24T14:02:53.855Z,4.70
2022-11-24T14:04:31.103Z,3.53
2022-11-24T14:06:04.573Z,3.70
2022-11-24T14:07:36.341Z,3.67
2022-11-24T14:09:28.350Z,4.57
2022-11-24T14:11:01.686Z,5.28
2022-11-24T14:12:33.989Z,4.32
2022-11-24T14:14:16.039Z,4.20
2022-11-24T14:15:59.448Z,3.90
2022-11-24T14:17:31.421Z,3.80
2022-11-24T14:19:09.807Z,3.83
2022-11-24T14:20:42.874Z,4.07
2022-11-24T14:22:17.927Z,3.63
2022-11-24T14:23:53.174Z,3.92
2022-11-24T14:25:29.966Z,3.72
2022-11-24T14:27:01.692Z,4.53
2022-11-24T14:28:33.393Z,3.80
2022-11-24T14:30:18.743Z,4.15
2022-11-24T14:31:53.572Z,4.25
2022-11-24T14:33:25.607Z,4.20
2022-11-24T14:34:57.421Z,4.38
2022-11-24T14:36:30.519Z,3.70
2022-11-24T14:38:04.084Z,3.80
2022-11-24T14:39:40.982Z,3.63
2022-11-24T14:41:25.337Z,3.97
2022-11-24T14:42:57.073Z,4.45
2022-11-24T14:44:31.609Z,3.63
2022-11-24T14:46:05.936Z,4.32
2022-11-24T14:47:45.092Z,4.18
2022-11-24T14:49:20.016Z,4.97
2022-11-24T14:50:51.910Z,5.00
2022-11-24T14:52:26.017Z,4.50
2022-11-24T14:54:01.723Z,4.45
2022-11-24T14:55:39.072Z,5.10
2022-11-24T14:57:24.274Z,5.40
2022-11-24T14:58:57.377Z,5.00
2022-11-24T15:00:31.567Z,5.15
2022-11-24T15:02:24.105Z,5.40
2022-11-24T15:04:17.931Z,4.80
2022-11-24T15:06:00.947Z,4.28
2022-11-24T15:07:37.257Z,4.75
2022-11-24T15:09:25.372Z,5.38
2022-11-24T15:11:00.357Z,5.10
2022-11-24T15:12:36.436Z,4.45
2022-11-24T15:14:31.514Z,4.88
2022-11-24T15:16:06.624Z,4.35
2022-11-24T15:17:46.302Z,4.63
2022-11-24T15:19:18.091Z,4.35
2022-11-24T15:20:49.811Z,4.47
2022-11-24T15:22:35.751Z,4.60
2022-11-24T15:24:16.915Z,4.63
2022-11-24T15:25:49.815Z,5.15
2022-11-24T15:27:21.485Z,4.53
2022-11-24T15:28:53.163Z,4.65
2022-11-24T15:30:25.402Z,5.22
2022-11-24T15:31:58.629Z,7.65
2022-11-24T15:33:31.074Z,5.90
2022-11-24T15:35:02.885Z,7.63
2022-11-24T15:36:34.579Z,5.63
2022-11-24T15:38:07.661Z,5.13
2022-11-24T15:39:39.373Z,7.00
2022-11-24T15:41:19.047Z,5.20
2022-11-24T15:42:52.327Z,5.53
2022-11-24T15:44:23.992Z,5.00
2022-11-24T15:45:55.900Z,4.97
2022-11-24T15:47:27.551Z,4.65
2022-11-24T15:48:59.225Z,5.57
2022-11-24T15:50:30.911Z,5.07
2022-11-24T15:52:02.603Z,4.55
2022-11-24T15:53:38.945Z,4.75
2022-11-24T15:55:18.237Z,5.28
2022-11-24T15:56:49.899Z,4.63
2022-11-24T15:58:21.556Z,4.95
2022-11-24T15:59:54.825Z,4.93
2022-11-24T16:01:34.328Z,5.28
2022-11-24T16:03:38.464Z,5.30
2022-11-24T16:04:57.948Z,4.22
2022-11-24T16:06:29.859Z,5.05
2022-11-24T16:08:01.747Z,4.45
2022-11-24T16:09:34.837Z,4.30
2022-11-24T16:11:06.682Z,4.65
2022-11-24T16:12:38.328Z,4.40
2022-11-24T16:14:10.016Z,4.88
2022-11-24T16:15:41.763Z,5.38
2022-11-24T16:17:13.438Z,5.15
2022-11-24T16:18:45.462Z,5.47
2022-11-24T16:20:17.779Z,4.82
2022-11-24T16:21:49.676Z,4.93
2022-11-24T16:23:21.439Z,5.50
2022-11-24T16:24:54.502Z,4.93
2022-11-24T16:26:26.257Z,4.70
2022-11-24T16:27:58.390Z,6.30
2022-11-24T16:29:34.011Z,5.03
2022-11-24T16:31:08.691Z,4.88
2022-11-24T16:32:40.505Z,4.93
2022-11-24T16:34:12.473Z,5.80
2022-11-24T16:35:46.816Z,6.20
2022-11-24T16:37:18.857Z,5.10
2022-11-24T16:38:50.668Z,6.55
2022-11-24T16:40:23.766Z,6.43
2022-11-24T16:41:55.382Z,5.57
2022-11-24T16:43:28.615Z,5.72
2022-11-24T16:45:00.280Z,5.95
2022-11-24T16:46:32.275Z,4.80
2022-11-24T16:48:04.273Z,5.13
2022-11-24T16:49:36.112Z,5.72
2022-11-24T16:51:10.009Z,4.80
2022-11-24T16:52:41.762Z,4.30
2022-11-24T16:54:13.406Z,5.32
2022-11-24T16:55:56.657Z,4.72
2022-11-24T16:57:28.357Z,4.32
2022-11-24T16:59:00.135Z,4.68
2022-11-24T17:00:31.853Z,4.40
2022-11-24T17:02:03.870Z,5.07
2022-11-24T17:03:38.216Z,5.22
2022-11-24T17:05:09.982Z,4.57
2022-11-24T17:06:41.793Z,4.93
2022-11-24T17:08:13.390Z,4.50
2022-11-24T17:09:45.253Z,4.95
2022-11-24T17:11:21.992Z,4.85
2022-11-24T17:12:53.678Z,5.20
2022-11-24T17:14:25.701Z,5.05
2022-11-24T17:15:57.324Z,5.03
2022-11-24T17:17:28.949Z,4.93
2022-11-24T17:19:00.629Z,4.65
2022-11-24T17:20:32.415Z,5.85
2022-11-24T17:22:04.173Z,4.47
2022-11-24T17:23:35.897Z,5.38
2022-11-24T17:25:08.745Z,5.10
2022-11-24T17:26:46.084Z,4.70
2022-11-24T17:29:52.156Z,5.20
2022-11-24T17:31:25.756Z,5.18
2022-11-24T17:32:57.440Z,5.00
2022-11-24T17:34:29.110Z,4.88
2022-11-24T17:36:04.757Z,5.63
2022-11-24T17:37:37.006Z,5.18
2022-11-24T17:39:09.452Z,5.57
2022-11-24T17:40:46.495Z,5.15
2022-11-24T17:42:19.513Z,5.72
2022-11-24T17:43:51.755Z,5.03
2022-11-24T17:45:23.384Z,5.28
2022-11-24T17:46:55.366Z,5.68
2022-11-24T17:48:27.767Z,5.30
2022-11-24T17:49:59.739Z,5.20
2022-11-24T17:51:31.398Z,6.35
2022-11-24T17:53:03.020Z,5.45
2022-11-24T17:54:49.999Z,5.30
2022-11-24T17:56:23.751Z,5.00
2022-11-24T17:57:57.325Z,4.90
2022-11-24T17:59:29.030Z,5.68
2022-11-24T18:01:01.597Z,5.47
2022-11-24T18:02:33.668Z,5.10
2022-11-24T18:04:05.416Z,4.97
2022-11-24T18:05:37.548Z,6.53
2022-11-24T18:07:09.289Z,5.82
2022-11-24T18:08:42.952Z,5.28
2022-11-24T18:10:14.775Z,4.32
2022-11-24T18:11:47.745Z,5.90
2022-11-24T18:13:41.138Z,5.50
2022-11-24T18:15:12.462Z,5.43
2022-11-24T18:16:44.139Z,5.55
2022-11-24T18:18:15.782Z,4.72
2022-11-24T18:19:47.394Z,4.40
2022-11-24T18:21:19.212Z,4.70
2022-11-24T18:23:05.006Z,4.40
2022-11-24T18:24:38.055Z,6.60
2022-11-24T18:26:12.526Z,4.53
2022-11-24T18:27:44.262Z,4.38
2022-11-24T18:29:17.295Z,4.50
2022-11-24T18:30:49.331Z,4.63
2022-11-24T18:32:21.032Z,4.05
2022-11-24T18:33:52.739Z,5.20
2022-11-24T18:35:24.514Z,4.00
2022-11-24T18:36:56.155Z,4.55
2022-11-24T18:38:28.719Z,4.65
2022-11-24T18:40:00.422Z,4.53
2022-11-24T18:41:32.407Z,4.05
2022-11-24T18:43:04.187Z,4.00
2022-11-24T18:44:37.573Z,4.60
2022-11-24T18:46:11.782Z,3.60
2022-11-24T18:47:43.424Z,4.03
2022-11-24T18:49:15.049Z,4.05
2022-11-24T18:50:50.466Z,4.07
2022-11-24T18:52:22.126Z,4.38
2022-11-24T18:53:54.558Z,4.57
2022-11-24T18:55:26.264Z,4.32
2022-11-24T18:57:03.090Z,4.25
2022-11-24T18:58:35.554Z,4.35
2022-11-24T19:00:10.921Z,4.68
2022-11-24T19:01:42.663Z,4.45
2022-11-24T19:03:14.445Z,4.45
2022-11-24T19:04:46.055Z,4.80
2022-11-24T19:06:19.876Z,5.88
2022-11-24T19:07:51.591Z,4.28
2022-11-24T19:09:25.341Z,5.00
2022-11-24T19:10:57.189Z,4.72
2022-11-24T19:12:28.863Z,5.13
2022-11-24T19:14:00.953Z,4.53
2022-11-24T19:15:34.620Z,4.63
2022-11-24T19:17:06.282Z,4.57
2022-11-24T19:18:38.281Z,4.57
2022-11-24T19:20:10.760Z,4.45
2022-11-24T19:21:42.495Z,4.50
2022-11-24T19:23:14.236Z,4.65
2022-11-24T19:24:46.573Z,4.82
2022-11-24T19:26:18.752Z,5.03
2022-11-24T19:27:50.478Z,5.55
2022-11-24T19:29:22.271Z,5.50
2022-11-24T19:30:59.808Z,6.00
2022-11-24T19:32:32.193Z,5.97
2022-11-24T19:34:05.770Z,5.35
2022-11-24T19:35:37.416Z,5.57
2022-11-24T19:37:09.099Z,6.00
2022-11-24T19:38:42.367Z,4.97
2022-11-24T19:40:14.736Z,5.15
2022-11-24T19:41:46.433Z,5.05
2022-11-24T19:43:18.033Z,4.70
2022-11-24T19:44:54.751Z,4.72
2022-11-24T19:46:30.152Z,4.88
2022-11-24T19:48:01.835Z,4.93
2022-11-24T19:49:33.442Z,5.47
2022-11-24T19:51:07.187Z,5.30
2022-11-24T19:52:38.955Z,5.65
2022-11-24T19:54:12.913Z,5.43
2022-11-24T19:55:44.552Z,4.82
2022-11-24T19:57:16.168Z,5.25
2022-11-24T19:58:49.206Z,5.57
2022-11-24T20:00:21.180Z,5.22
2022-11-24T20:01:54.499Z,5.60
2022-11-24T20:03:26.302Z,4.75
2022-11-24T20:04:57.996Z,5.65
2022-11-24T20:06:31.262Z,5.72
2022-11-24T20:08:03.004Z,5.25
2022-11-24T20:09:34.750Z,6.03
2022-11-24T20:11:08.449Z,6.47
2022-11-24T20:12:40.059Z,5.88
2022-11-24T20:14:12.926Z,5.28
2022-11-24T20:15:44.586Z,5.63
2022-11-24T20:17:17.621Z,5.68
2022-11-24T20:18:49.332Z,5.20
2022-11-24T20:20:20.978Z,5.20
2022-11-24T20:21:53.005Z,5.28
2022-11-24T20:23:24.645Z,5.10
2022-11-24T20:24:56.365Z,5.43
2022-11-24T20:26:31.025Z,5.10
2022-11-24T20:28:02.686Z,5.13
2022-11-24T20:29:34.342Z,5.25
2022-11-24T20:31:07.672Z,4.80
2022-11-24T20:32:40.728Z,5.65
2022-11-24T20:34:13.002Z,5.35
2022-11-24T20:35:44.646Z,5.22
2022-11-24T20:37:16.313Z,4.38
2022-11-24T20:38:49.479Z,4.57
2022-11-24T20:40:21.125Z,4.72
2022-11-24T20:41:53.683Z,5.32
2022-11-24T20:43:25.311Z,5.07
2022-11-24T20:45:00.649Z,4.70
2022-11-24T20:46:34.997Z,4.45
2022-11-24T20:48:07.959Z,4.60
2022-11-24T20:49:39.756Z,4.35
2022-11-24T20:51:13.627Z,4.90
2022-11-24T20:52:45.339Z,5.22
2022-11-24T20:54:18.179Z,5.25
2022-11-24T20:55:50.000Z,4.82
2022-11-24T20:57:21.720Z,5.00
2022-11-24T20:58:53.602Z,5.22
2022-11-24T21:00:25.233Z,4.72
2022-11-24T21:01:58.977Z,4.72
2022-11-24T21:03:32.331Z,4.90
2022-11-24T21:05:04.470Z,5.32
2022-11-24T21:06:36.662Z,5.35
2022-11-24T21:08:08.335Z,4.75
2022-11-24T21:09:39.928Z,4.75
2022-11-24T21:11:13.556Z,5.85
2022-11-24T21:12:45.259Z,5.20
2022-11-24T21:14:16.976Z,5.25
2022-11-24T21:15:48.653Z,4.95